Time,TemperatureF,DewpointF,PressureIn,WindDirection,WindDirectionDegrees,WindSpeedMPH,WindSpeedGustMPH,Humidity,HourlyPrecipIn,Conditions,Clouds,dailyrainin,SoftwareType,DateUTC
2013-07-03 00:01:00,61.0,58.0,30.04,East,99,0.0,0.0,91,0.00,,,0.00,,2013-07-03 05:01:00,
2013-07-03 00:11:00,61.0,58.0,30.04,East,99,0.0,0.0,91,0.00,,,0.00,,2013-07-03 05:11:00,
2013-07-03 00:23:00,61.0,58.0,30.04,East,99,0.0,0.0,91,0.00,,,0.00,,2013-07-03 05:23:00,
2013-07-03 00:37:00,60.0,57.0,30.03,East,99,0.0,0.0,90,0.00,,,0.00,,2013-07-03 05:37:00,
2013-07-03 00:46:00,60.0,57.0,30.03,East,99,0.0,0.0,90,0.00,,,0.00,,2013-07-03 05:46:00,
2013-07-03 01:06:00,59.0,57.0,30.03,East,99,0.0,0.0,92,0.00,,,0.00,,2013-07-03 06:06:00,
2013-07-03 01:24:00,59.0,57.0,30.03,East,99,0.0,0.0,92,0.00,,,0.00,,2013-07-03 06:24:00,
2013-07-03 01:38:00,59.0,56.0,30.03,East,99,0.0,0.0,90,0.00,,,0.00,,2013-07-03 06:38:00,
2013-07-03 01:48:00,59.0,56.0,30.03,East,99,0.0,0.0,90,0.00,,,0.00,,2013-07-03 06:48:00,
2013-07-03 01:58:00,60.0,57.0,30.03,East,99,0.0,0.0,91,0.00,,,0.00,,2013-07-03 06:58:00,
2013-07-03 02:05:00,59.0,56.0,30.03,East,99,0.0,0.0,90,0.00,,,0.00,,2013-07-03 07:05:00,
2013-07-03 02:26:00,59.0,56.0,30.03,East,99,0.0,0.0,91,0.00,,,0.00,,2013-07-03 07:26:00,
2013-07-03 02:37:00,59.0,57.0,30.02,East,99,0.0,0.0,92,0.00,,,0.00,,2013-07-03 07:37:00,
2013-07-03 02:47:00,59.0,57.0,30.02,East,99,0.0,0.0,92,0.00,,,0.00,,2013-07-03 07:47:00,
2013-07-03 03:01:00,59.0,56.0,30.02,East,99,0.0,0.0,91,0.00,,,0.00,,2013-07-03 08:01:00,
2013-07-03 03:16:00,59.0,56.0,30.02,East,99,0.0,0.0,91,0.00,,,0.00,,2013-07-03 08:16:00,
2013-07-03 03:25:00,58.0,55.0,30.02,East,99,0.0,0.0,91,0.00,,,0.00,,2013-07-03 08:25:00,
2013-07-03 03:36:00,58.0,56.0,30.02,East,99,0.0,0.0,92,0.00,,,0.00,,2013-07-03 08:36:00,
2013-07-03 03:45:00,58.0,56.0,30.02,East,99,0.0,0.0,92,0.00,,,0.00,,2013-07-03 08:45:00,
2013-07-03 03:57:00,58.0,56.0,30.02,East,99,0.0,0.0,92,0.00,,,0.00,,2013-07-03 08:57:00,
2013-07-03 04:16:00,57.0,55.0,30.03,East,99,0.0,0.0,93,0.00,,,0.00,,2013-07-03 09:16:00,
2013-07-03 04:24:00,57.0,55.0,30.03,East,99,0.0,0.0,93,0.00,,,0.00,,2013-07-03 09:24:00,
2013-07-03 04:37:00,57.0,55.0,30.02,East,99,0.0,0.0,93,0.00,,,0.00,,2013-07-03 09:37:00,
2013-07-03 04:57:00,57.0,55.0,30.02,East,99,0.0,0.0,93,0.00,,,0.00,,2013-07-03 09:57:00,
2013-07-03 05:05:00,56.0,54.0,30.02,East,99,0.0,0.0,92,0.00,,,0.00,,2013-07-03 10:05:00,
2013-07-03 05:15:00,56.0,54.0,30.02,East,99,0.0,0.0,92,0.00,,,0.00,,2013-07-03 10:15:00,
2013-07-03 05:28:00,56.0,54.0,30.02,East,99,0.0,0.0,92,0.00,,,0.00,,2013-07-03 10:28:00,
2013-07-03 05:36:00,56.0,54.0,30.02,East,99,0.0,0.0,92,0.00,,,0.00,,2013-07-03 10:36:00,
2013-07-03 05:56:00,54.0,52.0,30.03,East,99,0.0,0.0,93,0.00,,,0.00,,2013-07-03 10:56:00,
2013-07-03 06:06:00,54.0,52.0,30.03,East,99,0.0,0.0,93,0.00,,,0.00,,2013-07-03 11:06:00,
2013-07-03 06:16:00,54.0,52.0,30.03,East,99,0.0,0.0,93,0.00,,,0.00,,2013-07-03 11:16:00,
2013-07-03 06:25:00,53.0,51.0,30.03,East,99,0.0,0.0,94,0.00,,,0.00,,2013-07-03 11:25:00,
2013-07-03 06:38:00,54.0,52.0,30.04,East,99,0.0,0.0,94,0.00,,,0.00,,2013-07-03 11:38:00,
2013-07-03 06:57:00,54.0,53.0,30.04,East,99,0.0,0.0,95,0.00,,,0.00,,2013-07-03 11:57:00,
2013-07-03 07:08:00,56.0,55.0,30.04,East,99,0.0,0.0,96,0.00,,,0.00,,2013-07-03 12:08:00,
2013-07-03 07:16:00,56.0,55.0,30.04,East,99,0.0,0.0,96,0.00,,,0.00,,2013-07-03 12:16:00,
2013-07-03 07:25:00,56.0,55.0,30.04,East,99,0.0,0.0,96,0.00,,,0.00,,2013-07-03 12:25:00,
2013-07-03 07:37:00,59.0,58.0,30.05,East,99,0.0,0.0,95,0.00,,,0.00,,2013-07-03 12:37:00,
2013-07-03 07:43:00,59.0,58.0,30.05,East,99,0.0,0.0,95,0.00,,,0.00,,2013-07-03 12:43:00,
2013-07-03 07:58:00,60.0,58.0,30.05,East,99,0.0,0.0,92,0.00,,,0.00,,2013-07-03 12:58:00,
2013-07-03 08:16:00,61.0,58.0,30.05,East,99,0.0,4.0,90,0.00,,,0.00,,2013-07-03 13:16:00,
2013-07-03 08:24:00,63.0,59.0,30.06,East,99,0.0,0.0,87,0.00,,,0.00,,2013-07-03 13:24:00,
2013-07-03 08:35:00,64.0,59.0,30.06,East,99,0.0,0.0,85,0.00,,,0.00,,2013-07-03 13:35:00,
2013-07-03 08:47:00,64.0,59.0,30.06,East,99,0.0,0.0,85,0.00,,,0.00,,2013-07-03 13:47:00,
2013-07-03 08:55:00,65.0,60.0,30.07,East,99,0.0,0.0,83,0.00,,,0.00,,2013-07-03 13:55:00,
2013-07-03 09:06:00,65.0,60.0,30.07,East,99,0.0,0.0,83,0.00,,,0.00,,2013-07-03 14:06:00,
2013-07-03 09:15:00,65.0,60.0,30.07,East,99,0.0,0.0,83,0.00,,,0.00,,2013-07-03 14:15:00,
2013-07-03 09:26:00,69.0,61.0,30.07,East,80,0.0,0.0,76,0.00,,,0.00,,2013-07-03 14:26:00,
2013-07-03 09:47:00,70.0,61.0,30.07,East,80,1.0,5.0,74,0.00,,,0.00,,2013-07-03 14:47:00,
2013-07-03 09:55:00,72.0,63.0,30.07,ENE,71,1.0,4.0,74,0.00,,,0.00,,2013-07-03 14:55:00,
2013-07-03 10:05:00,73.0,62.0,30.07,WNW,296,2.0,6.0,68,0.00,,,0.00,,2013-07-03 15:05:00,
2013-07-03 10:15:00,75.0,60.0,30.07,NW,306,4.0,8.0,60,0.00,,,0.00,,2013-07-03 15:15:00,
2013-07-03 10:26:00,74.0,62.0,30.07,WNW,296,2.0,6.0,66,0.00,,,0.00,,2013-07-03 15:26:00,
2013-07-03 10:57:00,75.0,60.0,30.07,NW,306,4.0,8.0,60,0.00,,,0.00,,2013-07-03 15:57:00,
2013-07-03 11:06:00,75.0,60.0,30.07,NW,306,4.0,8.0,60,0.00,,,0.00,,2013-07-03 16:06:00,
2013-07-03 11:24:00,78.0,61.0,30.06,NW,311,1.0,11.0,56,0.00,,,0.00,,2013-07-03 16:24:00,
2013-07-03 11:40:00,79.0,60.0,30.06,NNW,339,6.0,9.0,52,0.00,,,0.00,,2013-07-03 16:40:00,
2013-07-03 11:47:00,79.0,60.0,30.06,NNW,339,6.0,9.0,52,0.00,,,0.00,,2013-07-03 16:47:00,
2013-07-03 11:59:00,79.0,60.0,30.06,NNW,339,6.0,9.0,52,0.00,,,0.00,,2013-07-03 16:59:00,
2013-07-03 12:06:00,79.0,59.0,30.06,NNW,328,3.0,11.0,51,0.00,,,0.00,,2013-07-03 17:06:00,
2013-07-03 12:16:00,79.0,59.0,30.06,NNW,328,3.0,11.0,51,0.00,,,0.00,,2013-07-03 17:16:00,
2013-07-03 12:25:00,80.0,60.0,30.06,North,351,4.0,10.0,50,0.00,,,0.00,,2013-07-03 17:25:00,
2013-07-03 12:40:00,81.0,59.0,30.06,North,10,7.0,12.0,47,0.00,,,0.00,,2013-07-03 17:40:00,
2013-07-03 12:46:00,81.0,59.0,30.06,North,10,7.0,12.0,47,0.00,,,0.00,,2013-07-03 17:46:00,
2013-07-03 12:56:00,83.0,61.0,30.05,North,5,1.0,7.0,47,0.00,,,0.00,,2013-07-03 17:56:00,
2013-07-03 13:07:00,83.0,61.0,30.05,North,5,1.0,7.0,47,0.00,,,0.00,,2013-07-03 18:07:00,
2013-07-03 13:15:00,83.0,61.0,30.05,North,5,1.0,7.0,47,0.00,,,0.00,,2013-07-03 18:15:00,
2013-07-03 13:25:00,82.0,60.0,30.04,NNW,334,2.0,11.0,48,0.00,,,0.00,,2013-07-03 18:25:00,
2013-07-03 13:36:00,85.0,59.0,30.03,North,360,6.0,9.0,42,0.00,,,0.00,,2013-07-03 18:36:00,
2013-07-03 13:46:00,85.0,59.0,30.03,North,360,6.0,9.0,42,0.00,,,0.00,,2013-07-03 18:46:00,
2013-07-03 13:59:00,83.0,59.0,30.03,North,7,5.0,10.0,45,0.00,,,0.00,,2013-07-03 18:59:00,
2013-07-03 14:04:00,80.0,59.0,30.03,NNE,13,1.0,4.0,49,0.00,,,0.00,,2013-07-03 19:04:00,
2013-07-03 14:15:00,80.0,59.0,30.03,NNE,13,1.0,4.0,49,0.00,,,0.00,,2013-07-03 19:15:00,
2013-07-03 14:29:00,81.0,59.0,30.02,NNE,13,0.0,4.0,48,0.00,,,0.00,,2013-07-03 19:29:00,
2013-07-03 14:36:00,82.0,59.0,30.02,WSW,257,3.0,11.0,46,0.00,,,0.00,,2013-07-03 19:36:00,
2013-07-03 14:46:00,82.0,59.0,30.02,WSW,257,3.0,11.0,46,0.00,,,0.00,,2013-07-03 19:46:00,
2013-07-03 14:57:00,81.0,61.0,30.02,NW,324,7.0,9.0,50,0.00,,,0.00,,2013-07-03 19:57:00,
2013-07-03 15:03:00,82.0,59.0,30.01,NW,312,5.0,8.0,45,0.00,,,0.00,,2013-07-03 20:03:00,
2013-07-03 15:13:00,82.0,59.0,30.01,NW,312,5.0,8.0,45,0.00,,,0.00,,2013-07-03 20:13:00,
2013-07-03 15:24:00,82.0,59.0,30.01,NW,312,5.0,8.0,45,0.00,,,0.00,,2013-07-03 20:24:00,
2013-07-03 15:44:00,82.0,59.0,30.01,NW,312,5.0,8.0,45,0.00,,,0.00,,2013-07-03 20:44:00,
2013-07-03 16:06:00,83.0,59.0,30.00,NW,311,1.0,7.0,45,0.00,,,0.00,,2013-07-03 21:06:00,
2013-07-03 16:13:00,83.0,59.0,30.00,NW,311,1.0,7.0,45,0.00,,,0.00,,2013-07-03 21:13:00,
2013-07-03 16:35:00,83.0,56.0,29.99,WNW,282,2.0,7.0,40,0.00,,,0.00,,2013-07-03 21:35:00,
2013-07-03 16:45:00,83.0,56.0,29.99,WNW,282,2.0,7.0,40,0.00,,,0.00,,2013-07-03 21:45:00,
2013-07-03 16:55:00,82.0,55.0,29.99,SSW,208,4.0,7.0,40,0.00,,,0.00,,2013-07-03 21:55:00,
2013-07-03 17:05:00,83.0,57.0,29.98,SSW,207,4.0,7.0,41,0.00,,,0.00,,2013-07-03 22:05:00,
2013-07-03 17:14:00,83.0,57.0,29.98,SSW,207,4.0,7.0,41,0.00,,,0.00,,2013-07-03 22:14:00,
2013-07-03 17:26:00,83.0,56.0,29.98,SSW,207,3.0,6.0,40,0.00,,,0.00,,2013-07-03 22:26:00,
2013-07-03 17:37:00,83.0,55.0,29.98,SW,218,1.0,6.0,39,0.00,,,0.00,,2013-07-03 22:37:00,
2013-07-03 17:45:00,83.0,55.0,29.98,SW,218,1.0,6.0,39,0.00,,,0.00,,2013-07-03 22:45:00,
2013-07-03 17:57:00,83.0,57.0,29.98,SW,228,1.0,5.0,41,0.00,,,0.00,,2013-07-03 22:57:00,
2013-07-03 18:14:00,84.0,58.0,29.97,WSW,256,0.0,6.0,41,0.00,,,0.00,,2013-07-03 23:14:00,
2013-07-03 18:24:00,84.0,58.0,29.97,WSW,256,0.0,6.0,41,0.00,,,0.00,,2013-07-03 23:24:00,
2013-07-03 18:39:00,83.0,56.0,29.96,WSW,256,0.0,4.0,40,0.00,,,0.00,,2013-07-03 23:39:00,
2013-07-03 18:44:00,83.0,56.0,29.96,WSW,256,0.0,4.0,40,0.00,,,0.00,,2013-07-03 23:44:00,
2013-07-03 18:56:00,83.0,57.0,29.96,West,263,1.0,7.0,41,0.00,,,0.00,,2013-07-03 23:56:00,
2013-07-03 19:15:00,83.0,57.0,29.97,West,263,1.0,3.0,41,0.00,,,0.00,,2013-07-04 00:15:00,
2013-07-03 19:24:00,83.0,58.0,29.97,West,263,0.0,6.0,42,0.00,,,0.00,,2013-07-04 00:24:00,
2013-07-03 19:36:00,82.0,58.0,29.97,West,263,0.0,0.0,44,0.00,,,0.00,,2013-07-04 00:36:00,
2013-07-03 19:47:00,82.0,58.0,29.97,West,263,0.0,0.0,44,0.00,,,0.00,,2013-07-04 00:47:00,
2013-07-03 19:57:00,81.0,60.0,29.97,West,263,0.0,0.0,49,0.00,,,0.00,,2013-07-04 00:57:00,
2013-07-03 20:03:00,76.0,59.0,29.98,NNE,28,6.0,13.0,55,0.00,,,0.00,,2013-07-04 01:03:00,
2013-07-03 20:15:00,76.0,59.0,29.98,NNE,28,6.0,13.0,55,0.00,,,0.00,,2013-07-04 01:15:00,
2013-07-03 20:43:00,72.0,58.0,29.98,NE,49,4.0,11.0,61,0.00,,,0.00,,2013-07-04 01:43:00,
2013-07-03 21:06:00,70.0,57.0,30.01,NW,326,6.0,10.0,64,0.00,,,0.00,,2013-07-04 02:06:00,
2013-07-03 21:14:00,70.0,57.0,30.01,NW,326,6.0,10.0,64,0.00,,,0.00,,2013-07-04 02:14:00,
2013-07-03 21:23:00,69.0,58.0,30.01,ENE,70,8.0,10.0,68,0.00,,,0.00,,2013-07-04 02:23:00,
2013-07-03 21:47:00,69.0,58.0,30.01,ENE,70,8.0,10.0,68,0.00,,,0.00,,2013-07-04 02:47:00,
2013-07-03 21:57:00,69.0,58.0,30.01,ENE,70,8.0,10.0,68,0.00,,,0.00,,2013-07-04 02:57:00,
2013-07-03 22:04:00,68.0,57.0,30.02,ENE,57,10.0,18.0,68,0.00,,,0.00,,2013-07-04 03:04:00,
2013-07-03 22:14:00,68.0,57.0,30.02,ENE,57,10.0,18.0,68,0.00,,,0.00,,2013-07-04 03:14:00,
2013-07-03 22:27:00,69.0,57.0,30.01,ENE,59,7.0,14.0,65,0.00,,,0.00,,2013-07-04 03:27:00,
2013-07-03 22:35:00,69.0,56.0,30.01,ENE,65,11.0,15.0,63,0.00,,,0.00,,2013-07-04 03:35:00,
2013-07-03 22:46:00,69.0,56.0,30.01,ENE,65,11.0,15.0,63,0.00,,,0.00,,2013-07-04 03:46:00,
2013-07-03 22:57:00,69.0,56.0,30.01,ENE,65,11.0,15.0,63,0.00,,,0.00,,2013-07-04 03:57:00,
2013-07-03 23:02:00,70.0,55.0,30.01,ESE,103,6.0,10.0,58,0.00,,,0.00,,2013-07-04 04:02:00,
2013-07-03 23:11:00,70.0,55.0,30.01,ESE,103,6.0,10.0,58,0.00,,,0.00,,2013-07-04 04:11:00,
2013-07-03 23:22:00,69.0,55.0,30.03,South,184,13.0,16.0,61,0.00,,,0.00,,2013-07-04 04:22:00,
2013-07-03 23:33:00,70.0,55.0,30.02,SSE,151,10.0,16.0,59,0.00,,,0.00,,2013-07-04 04:33:00,
2013-07-03 23:43:00,70.0,55.0,30.02,SSE,151,10.0,16.0,59,0.00,,,0.00,,2013-07-04 04:43:00,
2013-07-03 23:52:00,70.0,55.0,30.02,SSE,156,11.0,16.0,60,0.00,,,0.00,,2013-07-04 04:52:00,